sensor_id;sensor_type;location;lat;lon;timestamp;P1;durP1;ratioP1;P2;durP2;ratioP2
9224;SDS011;4647;48.072;11.616;2023-02-17T00:00:04;9.73;;;6.47;;
9224;SDS011;4647;48.072;11.616;2023-02-17T00:02:35;8.00;;;5.97;;
9224;SDS011;4647;48.072;11.616;2023-02-17T00:05:04;9.77;;;5.93;;
9224;SDS011;4647;48.072;11.616;2023-02-17T00:07:36;9.07;;;6.33;;
9224;SDS011;4647;48.072;11.616;2023-02-17T00:10:05;10.67;;;6.13;;
9224;SDS011;4647;48.072;11.616;2023-02-17T00:12:35;8.63;;;5.90;;
9224;SDS011;4647;48.072;11.616;2023-02-17T00:15:04;7.37;;;5.77;;
9224;SDS011;4647;48.072;11.616;2023-02-17T00:17:33;8.03;;;5.80;;
9224;SDS011;4647;48.072;11.616;2023-02-17T00:20:02;7.80;;;5.50;;
9224;SDS011;4647;48.072;11.616;2023-02-17T00:22:31;6.70;;;5.67;;
9224;SDS011;4647;48.072;11.616;2023-02-17T00:25:02;7.00;;;5.57;;
9224;SDS011;4647;48.072;11.616;2023-02-17T00:27:31;8.77;;;5.67;;
9224;SDS011;4647;48.072;11.616;2023-02-17T00:29:59;6.40;;;5.30;;
9224;SDS011;4647;48.072;11.616;2023-02-17T00:32:31;7.37;;;6.00;;
9224;SDS011;4647;48.072;11.616;2023-02-17T00:34:59;6.33;;;5.30;;
9224;SDS011;4647;48.072;11.616;2023-02-17T00:37:28;6.60;;;5.10;;
9224;SDS011;4647;48.072;11.616;2023-02-17T00:39:57;7.00;;;5.20;;
9224;SDS011;4647;48.072;11.616;2023-02-17T00:42:28;7.23;;;5.70;;
9224;SDS011;4647;48.072;11.616;2023-02-17T00:44:56;6.97;;;6.10;;
9224;SDS011;4647;48.072;11.616;2023-02-17T00:47:24;8.50;;;5.73;;
9224;SDS011;4647;48.072;11.616;2023-02-17T00:49:53;7.30;;;5.73;;
9224;SDS011;4647;48.072;11.616;2023-02-17T00:52:21;8.57;;;6.10;;
9224;SDS011;4647;48.072;11.616;2023-02-17T00:54:50;6.90;;;5.90;;
9224;SDS011;4647;48.072;11.616;2023-02-17T00:57:18;6.53;;;5.40;;
9224;SDS011;4647;48.072;11.616;2023-02-17T00:59:49;6.73;;;5.67;;
9224;SDS011;4647;48.072;11.616;2023-02-17T01:02:17;8.13;;;5.57;;
9224;SDS011;4647;48.072;11.616;2023-02-17T01:04:46;7.53;;;5.60;;
9224;SDS011;4647;48.072;11.616;2023-02-17T01:07:15;7.20;;;5.80;;
9224;SDS011;4647;48.072;11.616;2023-02-17T01:09:43;7.23;;;5.67;;
9224;SDS011;4647;48.072;11.616;2023-02-17T01:12:11;7.83;;;5.33;;
9224;SDS011;4647;48.072;11.616;2023-02-17T01:14:40;7.77;;;5.57;;
9224;SDS011;4647;48.072;11.616;2023-02-17T01:17:11;6.97;;;5.60;;
9224;SDS011;4647;48.072;11.616;2023-02-17T01:19:40;9.67;;;5.87;;
9224;SDS011;4647;48.072;11.616;2023-02-17T01:22:08;7.47;;;5.50;;
9224;SDS011;4647;48.072;11.616;2023-02-17T01:24:37;8.50;;;5.40;;
9224;SDS011;4647;48.072;11.616;2023-02-17T01:27:05;8.13;;;5.13;;
9224;SDS011;4647;48.072;11.616;2023-02-17T01:29:34;10.23;;;5.53;;
9224;SDS011;4647;48.072;11.616;2023-02-17T01:32:02;7.33;;;5.03;;
9224;SDS011;4647;48.072;11.616;2023-02-17T01:34:33;7.23;;;5.63;;
9224;SDS011;4647;48.072;11.616;2023-02-17T01:37:02;6.27;;;5.40;;
9224;SDS011;4647;48.072;11.616;2023-02-17T01:39:30;8.97;;;5.20;;
9224;SDS011;4647;48.072;11.616;2023-02-17T01:41:59;8.40;;;5.43;;
9224;SDS011;4647;48.072;11.616;2023-02-17T01:44:30;8.93;;;5.80;;
9224;SDS011;4647;48.072;11.616;2023-02-17T01:47:00;7.47;;;5.17;;
9224;SDS011;4647;48.072;11.616;2023-02-17T01:49:30;8.70;;;5.60;;
9224;SDS011;4647;48.072;11.616;2023-02-17T01:52:05;7.27;;;5.47;;
9224;SDS011;4647;48.072;11.616;2023-02-17T01:54:39;7.30;;;5.33;;
9224;SDS011;4647;48.072;11.616;2023-02-17T01:57:10;10.40;;;5.03;;
9224;SDS011;4647;48.072;11.616;2023-02-17T01:59:42;6.97;;;5.30;;
9224;SDS011;4647;48.072;11.616;2023-02-17T02:02:12;7.73;;;4.70;;
9224;SDS011;4647;48.072;11.616;2023-02-17T02:04:44;10.23;;;5.50;;
9224;SDS011;4647;48.072;11.616;2023-02-17T02:07:17;8.97;;;5.00;;
9224;SDS011;4647;48.072;11.616;2023-02-17T02:09:49;6.43;;;5.10;;
9224;SDS011;4647;48.072;11.616;2023-02-17T02:12:21;7.43;;;5.33;;
9224;SDS011;4647;48.072;11.616;2023-02-17T02:14:50;6.30;;;4.73;;
9224;SDS011;4647;48.072;11.616;2023-02-17T02:17:24;5.77;;;4.47;;
9224;SDS011;4647;48.072;11.616;2023-02-17T02:20:11;6.17;;;4.97;;
9224;SDS011;4647;48.072;11.616;2023-02-17T02:26:17;6.57;;;4.40;;
9224;SDS011;4647;48.072;11.616;2023-02-17T02:29:16;6.83;;;5.33;;
9224;SDS011;4647;48.072;11.616;2023-02-17T02:32:18;6.80;;;4.87;;
9224;SDS011;4647;48.072;11.616;2023-02-17T02:35:04;6.00;;;4.50;;
9224;SDS011;4647;48.072;11.616;2023-02-17T02:37:38;6.40;;;4.77;;
9224;SDS011;4647;48.072;11.616;2023-02-17T02:40:12;6.17;;;4.40;;
9224;SDS011;4647;48.072;11.616;2023-02-17T02:42:42;5.77;;;4.67;;
9224;SDS011;4647;48.072;11.616;2023-02-17T02:45:12;6.30;;;4.53;;
9224;SDS011;4647;48.072;11.616;2023-02-17T02:47:44;6.33;;;4.50;;
9224;SDS011;4647;48.072;11.616;2023-02-17T02:50:16;6.23;;;4.60;;
9224;SDS011;4647;48.072;11.616;2023-02-17T02:52:49;5.87;;;4.47;;
9224;SDS011;4647;48.072;11.616;2023-02-17T02:55:27;9.10;;;4.80;;
9224;SDS011;4647;48.072;11.616;2023-02-17T02:58:05;6.53;;;4.97;;
9224;SDS011;4647;48.072;11.616;2023-02-17T03:00:41;5.40;;;4.50;;
9224;SDS011;4647;48.072;11.616;2023-02-17T03:03:17;7.43;;;4.53;;
9224;SDS011;4647;48.072;11.616;2023-02-17T03:05:54;4.97;;;4.13;;
9224;SDS011;4647;48.072;11.616;2023-02-17T03:08:27;5.77;;;4.40;;
9224;SDS011;4647;48.072;11.616;2023-02-17T03:11:00;8.87;;;4.47;;
9224;SDS011;4647;48.072;11.616;2023-02-17T03:13:31;7.27;;;4.30;;
9224;SDS011;4647;48.072;11.616;2023-02-17T03:16:03;6.00;;;5.00;;
9224;SDS011;4647;48.072;11.616;2023-02-17T03:18:36;5.80;;;4.37;;
9224;SDS011;4647;48.072;11.616;2023-02-17T03:21:05;5.97;;;3.97;;
9224;SDS011;4647;48.072;11.616;2023-02-17T03:23:39;7.67;;;4.70;;
9224;SDS011;4647;48.072;11.616;2023-02-17T03:26:08;4.70;;;4.10;;
9224;SDS011;4647;48.072;11.616;2023-02-17T03:28:37;4.87;;;4.23;;
9224;SDS011;4647;48.072;11.616;2023-02-17T03:31:05;6.33;;;4.37;;
9224;SDS011;4647;48.072;11.616;2023-02-17T03:33:37;4.80;;;4.23;;
9224;SDS011;4647;48.072;11.616;2023-02-17T03:36:06;5.70;;;4.40;;
9224;SDS011;4647;48.072;11.616;2023-02-17T03:38:34;4.73;;;4.03;;
9224;SDS011;4647;48.072;11.616;2023-02-17T03:41:03;6.57;;;4.43;;
9224;SDS011;4647;48.072;11.616;2023-02-17T03:43:32;6.17;;;4.33;;
9224;SDS011;4647;48.072;11.616;2023-02-17T03:46:01;5.10;;;4.13;;
9224;SDS011;4647;48.072;11.616;2023-02-17T03:48:29;5.53;;;4.00;;
9224;SDS011;4647;48.072;11.616;2023-02-17T03:51:07;5.23;;;3.97;;
9224;SDS011;4647;48.072;11.616;2023-02-17T03:53:37;6.93;;;3.70;;
9224;SDS011;4647;48.072;11.616;2023-02-17T03:56:06;5.10;;;4.00;;
9224;SDS011;4647;48.072;11.616;2023-02-17T03:58:35;5.20;;;4.00;;
9224;SDS011;4647;48.072;11.616;2023-02-17T04:01:04;6.10;;;4.03;;
9224;SDS011;4647;48.072;11.616;2023-02-17T04:03:34;6.50;;;3.83;;
9224;SDS011;4647;48.072;11.616;2023-02-17T04:06:06;5.17;;;4.30;;
9224;SDS011;4647;48.072;11.616;2023-02-17T04:08:37;4.03;;;3.50;;
9224;SDS011;4647;48.072;11.616;2023-02-17T04:11:07;5.23;;;3.60;;
9224;SDS011;4647;48.072;11.616;2023-02-17T04:13:37;5.47;;;3.57;;
9224;SDS011;4647;48.072;11.616;2023-02-17T04:16:07;6.83;;;3.50;;
9224;SDS011;4647;48.072;11.616;2023-02-17T04:18:37;6.00;;;3.70;;
9224;SDS011;4647;48.072;11.616;2023-02-17T04:21:08;4.77;;;3.50;;
9224;SDS011;4647;48.072;11.616;2023-02-17T04:23:37;5.90;;;3.40;;
9224;SDS011;4647;48.072;11.616;2023-02-17T04:26:06;8.43;;;3.63;;
9224;SDS011;4647;48.072;11.616;2023-02-17T04:28:36;5.50;;;3.17;;
9224;SDS011;4647;48.072;11.616;2023-02-17T04:31:05;4.43;;;3.40;;
9224;SDS011;4647;48.072;11.616;2023-02-17T04:33:34;5.40;;;3.17;;
9224;SDS011;4647;48.072;11.616;2023-02-17T04:36:03;5.03;;;3.20;;
9224;SDS011;4647;48.072;11.616;2023-02-17T04:38:34;5.87;;;3.50;;
9224;SDS011;4647;48.072;11.616;2023-02-17T04:41:03;5.30;;;3.60;;
9224;SDS011;4647;48.072;11.616;2023-02-17T04:43:33;4.77;;;3.47;;
9224;SDS011;4647;48.072;11.616;2023-02-17T04:46:01;7.57;;;3.50;;
9224;SDS011;4647;48.072;11.616;2023-02-17T04:48:29;6.20;;;3.40;;
9224;SDS011;4647;48.072;11.616;2023-02-17T04:50:58;4.97;;;3.17;;
9224;SDS011;4647;48.072;11.616;2023-02-17T04:53:27;4.13;;;3.40;;
9224;SDS011;4647;48.072;11.616;2023-02-17T04:55:58;7.10;;;3.77;;
9224;SDS011;4647;48.072;11.616;2023-02-17T04:58:26;4.33;;;3.20;;
9224;SDS011;4647;48.072;11.616;2023-02-17T05:00:57;4.63;;;3.40;;
9224;SDS011;4647;48.072;11.616;2023-02-17T05:03:26;6.80;;;3.73;;
9224;SDS011;4647;48.072;11.616;2023-02-17T05:05:55;6.63;;;3.40;;
9224;SDS011;4647;48.072;11.616;2023-02-17T05:08:23;7.33;;;3.47;;
9224;SDS011;4647;48.072;11.616;2023-02-17T05:10:52;6.10;;;4.03;;
9224;SDS011;4647;48.072;11.616;2023-02-17T05:13:23;7.33;;;3.80;;
9224;SDS011;4647;48.072;11.616;2023-02-17T05:15:51;10.57;;;4.80;;
9224;SDS011;4647;48.072;11.616;2023-02-17T05:18:20;9.53;;;4.97;;
9224;SDS011;4647;48.072;11.616;2023-02-17T05:20:50;6.43;;;3.90;;
9224;SDS011;4647;48.072;11.616;2023-02-17T05:23:18;5.67;;;3.83;;
9224;SDS011;4647;48.072;11.616;2023-02-17T05:25:47;8.50;;;3.47;;
9224;SDS011;4647;48.072;11.616;2023-02-17T05:28:16;5.73;;;4.00;;
9224;SDS011;4647;48.072;11.616;2023-02-17T05:30:47;6.63;;;4.33;;
9224;SDS011;4647;48.072;11.616;2023-02-17T05:33:15;5.43;;;3.20;;
9224;SDS011;4647;48.072;11.616;2023-02-17T05:35:44;7.77;;;3.77;;
9224;SDS011;4647;48.072;11.616;2023-02-17T05:38:12;5.17;;;3.60;;
9224;SDS011;4647;48.072;11.616;2023-02-17T05:40:41;5.80;;;3.23;;
9224;SDS011;4647;48.072;11.616;2023-02-17T05:43:09;5.50;;;3.57;;
9224;SDS011;4647;48.072;11.616;2023-02-17T05:45:37;6.07;;;3.50;;
9224;SDS011;4647;48.072;11.616;2023-02-17T05:48:09;7.43;;;3.40;;
9224;SDS011;4647;48.072;11.616;2023-02-17T05:50:37;5.33;;;3.40;;
9224;SDS011;4647;48.072;11.616;2023-02-17T05:53:06;6.07;;;3.67;;
9224;SDS011;4647;48.072;11.616;2023-02-17T05:55:34;6.40;;;3.50;;
9224;SDS011;4647;48.072;11.616;2023-02-17T05:58:02;6.70;;;3.20;;
9224;SDS011;4647;48.072;11.616;2023-02-17T06:00:31;8.17;;;3.37;;
9224;SDS011;4647;48.072;11.616;2023-02-17T06:03:00;5.37;;;3.30;;
9224;SDS011;4647;48.072;11.616;2023-02-17T06:05:31;4.77;;;3.20;;
9224;SDS011;4647;48.072;11.616;2023-02-17T06:07:59;4.10;;;2.83;;
9224;SDS011;4647;48.072;11.616;2023-02-17T06:10:28;3.83;;;2.80;;
9224;SDS011;4647;48.072;11.616;2023-02-17T06:12:56;7.10;;;3.33;;
9224;SDS011;4647;48.072;11.616;2023-02-17T06:15:24;4.73;;;3.00;;
9224;SDS011;4647;48.072;11.616;2023-02-17T06:17:53;6.10;;;3.20;;
9224;SDS011;4647;48.072;11.616;2023-02-17T06:20:22;6.07;;;2.93;;
9224;SDS011;4647;48.072;11.616;2023-02-17T06:22:53;7.33;;;3.27;;
9224;SDS011;4647;48.072;11.616;2023-02-17T06:25:22;6.57;;;3.07;;
9224;SDS011;4647;48.072;11.616;2023-02-17T06:27:50;8.23;;;3.20;;
9224;SDS011;4647;48.072;11.616;2023-02-17T06:30:19;6.53;;;2.97;;
9224;SDS011;4647;48.072;11.616;2023-02-17T06:32:48;5.33;;;3.10;;
9224;SDS011;4647;48.072;11.616;2023-02-17T06:35:17;7.70;;;3.33;;
9224;SDS011;4647;48.072;11.616;2023-02-17T06:37:46;6.32;;;3.15;;
9224;SDS011;4647;48.072;11.616;2023-02-17T06:40:17;8.13;;;3.00;;
9224;SDS011;4647;48.072;11.616;2023-02-17T06:42:46;6.97;;;3.27;;
9224;SDS011;4647;48.072;11.616;2023-02-17T06:45:14;7.77;;;3.00;;
9224;SDS011;4647;48.072;11.616;2023-02-17T06:47:43;7.30;;;2.73;;
9224;SDS011;4647;48.072;11.616;2023-02-17T06:50:11;6.87;;;3.17;;
9224;SDS011;4647;48.072;11.616;2023-02-17T06:52:40;6.33;;;3.10;;
9224;SDS011;4647;48.072;11.616;2023-02-17T06:55:09;7.23;;;2.90;;
9224;SDS011;4647;48.072;11.616;2023-02-17T06:57:40;9.00;;;3.13;;
9224;SDS011;4647;48.072;11.616;2023-02-17T07:00:09;6.57;;;3.17;;
9224;SDS011;4647;48.072;11.616;2023-02-17T07:02:39;6.00;;;2.90;;
9224;SDS011;4647;48.072;11.616;2023-02-17T07:05:07;8.53;;;3.40;;
9224;SDS011;4647;48.072;11.616;2023-02-17T07:07:36;8.30;;;3.40;;
9224;SDS011;4647;48.072;11.616;2023-02-17T07:10:05;6.13;;;3.03;;
9224;SDS011;4647;48.072;11.616;2023-02-17T07:12:34;7.97;;;2.90;;
9224;SDS011;4647;48.072;11.616;2023-02-17T07:15:06;11.83;;;3.63;;
9224;SDS011;4647;48.072;11.616;2023-02-17T07:17:34;9.47;;;3.60;;
9224;SDS011;4647;48.072;11.616;2023-02-17T07:20:03;8.60;;;3.23;;
9224;SDS011;4647;48.072;11.616;2023-02-17T07:22:33;11.53;;;3.90;;
9224;SDS011;4647;48.072;11.616;2023-02-17T07:25:01;9.13;;;3.63;;
9224;SDS011;4647;48.072;11.616;2023-02-17T07:27:30;10.53;;;3.67;;
9224;SDS011;4647;48.072;11.616;2023-02-17T07:29:59;10.37;;;3.47;;
9224;SDS011;4647;48.072;11.616;2023-02-17T07:32:30;12.07;;;3.63;;
9224;SDS011;4647;48.072;11.616;2023-02-17T07:34:59;10.23;;;3.43;;
9224;SDS011;4647;48.072;11.616;2023-02-17T07:37:28;8.73;;;3.47;;
9224;SDS011;4647;48.072;11.616;2023-02-17T07:39:58;11.70;;;3.50;;
9224;SDS011;4647;48.072;11.616;2023-02-17T07:42:26;10.13;;;3.10;;
9224;SDS011;4647;48.072;11.616;2023-02-17T07:44:55;12.27;;;3.33;;
9224;SDS011;4647;48.072;11.616;2023-02-17T07:47:24;10.83;;;3.60;;
9224;SDS011;4647;48.072;11.616;2023-02-17T07:49:55;9.83;;;3.37;;
9224;SDS011;4647;48.072;11.616;2023-02-17T07:52:23;11.03;;;3.20;;
9224;SDS011;4647;48.072;11.616;2023-02-17T07:54:52;11.37;;;3.43;;
9224;SDS011;4647;48.072;11.616;2023-02-17T07:57:20;10.23;;;3.03;;
9224;SDS011;4647;48.072;11.616;2023-02-17T07:59:49;10.97;;;3.50;;
9224;SDS011;4647;48.072;11.616;2023-02-17T08:02:17;9.23;;;3.20;;
9224;SDS011;4647;48.072;11.616;2023-02-17T08:04:46;15.37;;;3.90;;
9224;SDS011;4647;48.072;11.616;2023-02-17T08:07:17;9.07;;;3.37;;
9224;SDS011;4647;48.072;11.616;2023-02-17T08:09:45;9.33;;;3.20;;
9224;SDS011;4647;48.072;11.616;2023-02-17T08:12:26;14.03;;;3.60;;
9224;SDS011;4647;48.072;11.616;2023-02-17T08:15:08;9.73;;;3.37;;
9224;SDS011;4647;48.072;11.616;2023-02-17T08:17:38;10.07;;;3.27;;
9224;SDS011;4647;48.072;11.616;2023-02-17T08:20:07;7.73;;;3.20;;
9224;SDS011;4647;48.072;11.616;2023-02-17T08:22:40;10.87;;;4.00;;
9224;SDS011;4647;48.072;11.616;2023-02-17T08:25:08;9.50;;;3.30;;
9224;SDS011;4647;48.072;11.616;2023-02-17T08:27:37;11.27;;;4.50;;
9224;SDS011;4647;48.072;11.616;2023-02-17T08:30:06;10.37;;;3.37;;
9224;SDS011;4647;48.072;11.616;2023-02-17T08:32:35;7.50;;;3.30;;
9224;SDS011;4647;48.072;11.616;2023-02-17T08:35:04;9.17;;;3.60;;
9224;SDS011;4647;48.072;11.616;2023-02-17T08:37:34;11.67;;;3.47;;
9224;SDS011;4647;48.072;11.616;2023-02-17T08:40:06;14.60;;;3.60;;
9224;SDS011;4647;48.072;11.616;2023-02-17T08:42:35;12.57;;;3.47;;
9224;SDS011;4647;48.072;11.616;2023-02-17T08:45:04;11.50;;;3.93;;
9224;SDS011;4647;48.072;11.616;2023-02-17T08:47:33;12.27;;;3.40;;
9224;SDS011;4647;48.072;11.616;2023-02-17T08:50:03;15.17;;;3.40;;
9224;SDS011;4647;48.072;11.616;2023-02-17T08:52:32;10.20;;;3.73;;
9224;SDS011;4647;48.072;11.616;2023-02-17T08:55:01;10.47;;;3.37;;
9224;SDS011;4647;48.072;11.616;2023-02-17T08:57:32;11.20;;;3.70;;
9224;SDS011;4647;48.072;11.616;2023-02-17T09:00:03;10.23;;;3.30;;
9224;SDS011;4647;48.072;11.616;2023-02-17T09:02:32;14.33;;;3.97;;
9224;SDS011;4647;48.072;11.616;2023-02-17T09:05:02;13.47;;;3.80;;
9224;SDS011;4647;48.072;11.616;2023-02-17T09:07:31;12.97;;;3.90;;
9224;SDS011;4647;48.072;11.616;2023-02-17T09:09:59;8.13;;;3.20;;
9224;SDS011;4647;48.072;11.616;2023-02-17T09:12:28;11.43;;;3.77;;
9224;SDS011;4647;48.072;11.616;2023-02-17T09:15:00;12.20;;;4.13;;
9224;SDS011;4647;48.072;11.616;2023-02-17T09:17:28;10.90;;;3.50;;
9224;SDS011;4647;48.072;11.616;2023-02-17T09:19:57;11.23;;;3.80;;
9224;SDS011;4647;48.072;11.616;2023-02-17T09:22:25;10.87;;;4.00;;
9224;SDS011;4647;48.072;11.616;2023-02-17T09:24:53;10.63;;;3.40;;
9224;SDS011;4647;48.072;11.616;2023-02-17T09:27:22;8.90;;;3.37;;
9224;SDS011;4647;48.072;11.616;2023-02-17T09:29:54;13.63;;;3.37;;
9224;SDS011;4647;48.072;11.616;2023-02-17T09:32:22;8.13;;;3.60;;
9224;SDS011;4647;48.072;11.616;2023-02-17T09:34:51;9.37;;;3.50;;
9224;SDS011;4647;48.072;11.616;2023-02-17T09:37:20;13.60;;;3.87;;
9224;SDS011;4647;48.072;11.616;2023-02-17T09:39:48;7.80;;;3.50;;
9224;SDS011;4647;48.072;11.616;2023-02-17T09:42:18;10.57;;;3.57;;
9224;SDS011;4647;48.072;11.616;2023-02-17T09:44:50;10.43;;;4.10;;
9224;SDS011;4647;48.072;11.616;2023-02-17T09:47:26;12.57;;;4.17;;
9224;SDS011;4647;48.072;11.616;2023-02-17T09:50:01;10.27;;;3.90;;
9224;SDS011;4647;48.072;11.616;2023-02-17T09:52:34;14.87;;;3.90;;
9224;SDS011;4647;48.072;11.616;2023-02-17T09:55:07;13.97;;;4.07;;
9224;SDS011;4647;48.072;11.616;2023-02-17T09:57:40;12.47;;;4.23;;
9224;SDS011;4647;48.072;11.616;2023-02-17T10:00:20;10.47;;;3.80;;
9224;SDS011;4647;48.072;11.616;2023-02-17T10:02:54;9.43;;;3.43;;
9224;SDS011;4647;48.072;11.616;2023-02-17T10:05:27;10.73;;;3.60;;
9224;SDS011;4647;48.072;11.616;2023-02-17T10:08:03;9.37;;;3.43;;
9224;SDS011;4647;48.072;11.616;2023-02-17T10:10:37;11.37;;;3.57;;
9224;SDS011;4647;48.072;11.616;2023-02-17T10:13:09;12.67;;;3.40;;
9224;SDS011;4647;48.072;11.616;2023-02-17T10:15:42;7.40;;;3.50;;
9224;SDS011;4647;48.072;11.616;2023-02-17T10:18:16;9.57;;;3.50;;
9224;SDS011;4647;48.072;11.616;2023-02-17T10:20:51;8.37;;;3.00;;
9224;SDS011;4647;48.072;11.616;2023-02-17T10:23:27;7.60;;;3.10;;
9224;SDS011;4647;48.072;11.616;2023-02-17T10:26:01;10.40;;;3.70;;
9224;SDS011;4647;48.072;11.616;2023-02-17T10:28:49;10.13;;;3.57;;
9224;SDS011;4647;48.072;11.616;2023-02-17T10:31:23;12.10;;;3.60;;
9224;SDS011;4647;48.072;11.616;2023-02-17T10:34:00;6.90;;;3.40;;
9224;SDS011;4647;48.072;11.616;2023-02-17T10:36:32;10.77;;;2.93;;
9224;SDS011;4647;48.072;11.616;2023-02-17T10:39:12;6.97;;;3.20;;
9224;SDS011;4647;48.072;11.616;2023-02-17T10:41:50;8.00;;;3.47;;
9224;SDS011;4647;48.072;11.616;2023-02-17T10:44:22;10.37;;;3.30;;
9224;SDS011;4647;48.072;11.616;2023-02-17T10:46:55;10.37;;;2.90;;
9224;SDS011;4647;48.072;11.616;2023-02-17T10:49:25;9.57;;;3.37;;
9224;SDS011;4647;48.072;11.616;2023-02-17T10:51:57;12.63;;;3.70;;
9224;SDS011;4647;48.072;11.616;2023-02-17T10:54:31;9.30;;;3.30;;
9224;SDS011;4647;48.072;11.616;2023-02-17T10:57:07;9.33;;;2.97;;
9224;SDS011;4647;48.072;11.616;2023-02-17T10:59:38;6.55;;;3.28;;
9224;SDS011;4647;48.072;11.616;2023-02-17T11:02:33;12.20;;;3.17;;
9224;SDS011;4647;48.072;11.616;2023-02-17T11:05:04;9.93;;;3.10;;
9224;SDS011;4647;48.072;11.616;2023-02-17T11:07:35;14.10;;;2.93;;
9224;SDS011;4647;48.072;11.616;2023-02-17T11:10:19;8.30;;;3.27;;
9224;SDS011;4647;48.072;11.616;2023-02-17T11:12:49;7.70;;;3.20;;
9224;SDS011;4647;48.072;11.616;2023-02-17T11:15:21;9.27;;;2.97;;
9224;SDS011;4647;48.072;11.616;2023-02-17T11:17:54;7.17;;;2.87;;
9224;SDS011;4647;48.072;11.616;2023-02-17T11:20:33;10.60;;;3.40;;
9224;SDS011;4647;48.072;11.616;2023-02-17T11:23:04;5.23;;;2.97;;
9224;SDS011;4647;48.072;11.616;2023-02-17T11:25:37;8.10;;;3.30;;
9224;SDS011;4647;48.072;11.616;2023-02-17T11:28:09;9.03;;;3.20;;
9224;SDS011;4647;48.072;11.616;2023-02-17T11:30:47;8.50;;;3.10;;
9224;SDS011;4647;48.072;11.616;2023-02-17T11:33:21;7.73;;;3.30;;
9224;SDS011;4647;48.072;11.616;2023-02-17T11:35:55;7.47;;;2.90;;
9224;SDS011;4647;48.072;11.616;2023-02-17T11:38:26;5.07;;;2.40;;
9224;SDS011;4647;48.072;11.616;2023-02-17T11:41:00;9.23;;;2.83;;
9224;SDS011;4647;48.072;11.616;2023-02-17T11:43:31;8.67;;;2.90;;
9224;SDS011;4647;48.072;11.616;2023-02-17T11:46:03;6.93;;;3.20;;
9224;SDS011;4647;48.072;11.616;2023-02-17T11:51:35;8.43;;;2.67;;
9224;SDS011;4647;48.072;11.616;2023-02-17T11:54:15;14.43;;;2.90;;
9224;SDS011;4647;48.072;11.616;2023-02-17T11:56:56;5.90;;;2.70;;
9224;SDS011;4647;48.072;11.616;2023-02-17T11:59:35;6.17;;;2.47;;
9224;SDS011;4647;48.072;11.616;2023-02-17T12:02:16;8.00;;;3.00;;
9224;SDS011;4647;48.072;11.616;2023-02-17T12:04:58;8.73;;;2.70;;
9224;SDS011;4647;48.072;11.616;2023-02-17T12:07:52;7.70;;;2.67;;
9224;SDS011;4647;48.072;11.616;2023-02-17T12:10:37;7.20;;;2.90;;
9224;SDS011;4647;48.072;11.616;2023-02-17T12:13:16;8.57;;;2.70;;
9224;SDS011;4647;48.072;11.616;2023-02-17T12:15:57;6.90;;;2.80;;
9224;SDS011;4647;48.072;11.616;2023-02-17T12:18:40;6.07;;;2.60;;
9224;SDS011;4647;48.072;11.616;2023-02-17T12:21:21;7.47;;;2.80;;
9224;SDS011;4647;48.072;11.616;2023-02-17T12:24:01;7.97;;;2.60;;
9224;SDS011;4647;48.072;11.616;2023-02-17T12:26:43;6.47;;;2.40;;
9224;SDS011;4647;48.072;11.616;2023-02-17T12:29:18;4.47;;;2.67;;
9224;SDS011;4647;48.072;11.616;2023-02-17T12:32:02;10.47;;;2.93;;
9224;SDS011;4647;48.072;11.616;2023-02-17T12:37:22;9.60;;;2.73;;
9224;SDS011;4647;48.072;11.616;2023-02-17T12:39:56;9.60;;;2.90;;
9224;SDS011;4647;48.072;11.616;2023-02-17T12:42:29;6.87;;;2.47;;
9224;SDS011;4647;48.072;11.616;2023-02-17T12:45:03;7.30;;;2.30;;
9224;SDS011;4647;48.072;11.616;2023-02-17T12:47:34;5.23;;;2.40;;
9224;SDS011;4647;48.072;11.616;2023-02-17T12:50:13;4.93;;;2.53;;
9224;SDS011;4647;48.072;11.616;2023-02-17T12:52:49;9.00;;;2.30;;
9224;SDS011;4647;48.072;11.616;2023-02-17T12:55:23;5.50;;;2.60;;
9224;SDS011;4647;48.072;11.616;2023-02-17T12:57:55;8.87;;;2.80;;
9224;SDS011;4647;48.072;11.616;2023-02-17T13:00:26;6.73;;;2.30;;
9224;SDS011;4647;48.072;11.616;2023-02-17T13:03:01;9.10;;;3.20;;
9224;SDS011;4647;48.072;11.616;2023-02-17T13:05:31;4.73;;;2.63;;
9224;SDS011;4647;48.072;11.616;2023-02-17T13:08:07;9.37;;;2.17;;
9224;SDS011;4647;48.072;11.616;2023-02-17T13:10:41;5.27;;;2.37;;
9224;SDS011;4647;48.072;11.616;2023-02-17T13:13:10;8.37;;;2.50;;
9224;SDS011;4647;48.072;11.616;2023-02-17T13:15:41;5.33;;;2.40;;
9224;SDS011;4647;48.072;11.616;2023-02-17T13:18:13;4.23;;;2.40;;
9224;SDS011;4647;48.072;11.616;2023-02-17T13:20:55;4.67;;;3.00;;
9224;SDS011;4647;48.072;11.616;2023-02-17T13:23:29;6.33;;;2.60;;
9224;SDS011;4647;48.072;11.616;2023-02-17T13:26:15;7.43;;;2.80;;
9224;SDS011;4647;48.072;11.616;2023-02-17T13:32:04;5.10;;;2.53;;
9224;SDS011;4647;48.072;11.616;2023-02-17T13:34:35;7.50;;;2.40;;
9224;SDS011;4647;48.072;11.616;2023-02-17T13:37:17;6.53;;;2.50;;
9224;SDS011;4647;48.072;11.616;2023-02-17T13:39:54;7.33;;;2.67;;
9224;SDS011;4647;48.072;11.616;2023-02-17T13:42:33;6.93;;;2.17;;
9224;SDS011;4647;48.072;11.616;2023-02-17T13:45:10;3.57;;;2.33;;
9224;SDS011;4647;48.072;11.616;2023-02-17T13:47:41;5.07;;;2.30;;
9224;SDS011;4647;48.072;11.616;2023-02-17T13:50:26;4.63;;;2.40;;
9224;SDS011;4647;48.072;11.616;2023-02-17T13:52:57;7.93;;;2.70;;
9224;SDS011;4647;48.072;11.616;2023-02-17T13:55:29;5.13;;;2.57;;
9224;SDS011;4647;48.072;11.616;2023-02-17T13:57:58;7.80;;;2.80;;
9224;SDS011;4647;48.072;11.616;2023-02-17T14:00:28;5.83;;;2.70;;
9224;SDS011;4647;48.072;11.616;2023-02-17T14:02:58;3.97;;;2.33;;
9224;SDS011;4647;48.072;11.616;2023-02-17T14:05:35;6.73;;;2.37;;
9224;SDS011;4647;48.072;11.616;2023-02-17T14:08:11;5.93;;;2.53;;
9224;SDS011;4647;48.072;11.616;2023-02-17T14:10:46;7.97;;;2.50;;
9224;SDS011;4647;48.072;11.616;2023-02-17T14:13:16;6.80;;;2.70;;
9224;SDS011;4647;48.072;11.616;2023-02-17T14:15:48;6.53;;;2.40;;
9224;SDS011;4647;48.072;11.616;2023-02-17T14:18:26;5.57;;;2.30;;
9224;SDS011;4647;48.072;11.616;2023-02-17T14:21:00;5.53;;;2.43;;
9224;SDS011;4647;48.072;11.616;2023-02-17T14:23:41;6.87;;;2.30;;
9224;SDS011;4647;48.072;11.616;2023-02-17T14:26:22;4.20;;;2.20;;
9224;SDS011;4647;48.072;11.616;2023-02-17T14:28:55;6.03;;;3.60;;
9224;SDS011;4647;48.072;11.616;2023-02-17T14:31:24;3.67;;;2.10;;
9224;SDS011;4647;48.072;11.616;2023-02-17T14:33:54;5.17;;;2.30;;
9224;SDS011;4647;48.072;11.616;2023-02-17T14:36:27;3.83;;;2.20;;
9224;SDS011;4647;48.072;11.616;2023-02-17T14:38:58;7.67;;;2.60;;
9224;SDS011;4647;48.072;11.616;2023-02-17T14:41:30;5.30;;;2.37;;
9224;SDS011;4647;48.072;11.616;2023-02-17T14:43:59;5.20;;;2.50;;
9224;SDS011;4647;48.072;11.616;2023-02-17T14:46:28;5.03;;;1.90;;
9224;SDS011;4647;48.072;11.616;2023-02-17T14:48:56;3.40;;;2.30;;
9224;SDS011;4647;48.072;11.616;2023-02-17T14:51:30;2.87;;;1.97;;
9224;SDS011;4647;48.072;11.616;2023-02-17T14:54:00;6.03;;;2.13;;
9224;SDS011;4647;48.072;11.616;2023-02-17T14:56:33;3.93;;;1.80;;
9224;SDS011;4647;48.072;11.616;2023-02-17T14:59:05;4.60;;;2.23;;
9224;SDS011;4647;48.072;11.616;2023-02-17T15:01:33;5.30;;;1.93;;
9224;SDS011;4647;48.072;11.616;2023-02-17T15:04:02;3.70;;;1.97;;
9224;SDS011;4647;48.072;11.616;2023-02-17T15:06:32;6.20;;;2.30;;
9224;SDS011;4647;48.072;11.616;2023-02-17T15:09:08;4.67;;;2.13;;
9224;SDS011;4647;48.072;11.616;2023-02-17T15:11:42;5.60;;;2.90;;
9224;SDS011;4647;48.072;11.616;2023-02-17T15:14:13;8.17;;;2.57;;
9224;SDS011;4647;48.072;11.616;2023-02-17T15:16:43;4.77;;;2.27;;
9224;SDS011;4647;48.072;11.616;2023-02-17T15:19:13;4.43;;;2.07;;
9224;SDS011;4647;48.072;11.616;2023-02-17T15:21:43;6.90;;;2.10;;
9224;SDS011;4647;48.072;11.616;2023-02-17T15:24:15;3.53;;;1.90;;
9224;SDS011;4647;48.072;11.616;2023-02-17T15:26:48;3.10;;;2.07;;
9224;SDS011;4647;48.072;11.616;2023-02-17T15:29:19;3.00;;;1.97;;
9224;SDS011;4647;48.072;11.616;2023-02-17T15:31:49;4.43;;;2.27;;
9224;SDS011;4647;48.072;11.616;2023-02-17T15:34:19;3.20;;;1.80;;
9224;SDS011;4647;48.072;11.616;2023-02-17T15:36:49;5.90;;;2.13;;